createdAt,value
2022-10-26T00:01:14.448Z,35.85
2022-10-26T00:03:44.205Z,36.75
2022-10-26T00:06:17.984Z,34.53
2022-10-26T00:08:45.892Z,36.17
2022-10-26T00:11:13.880Z,33.65
2022-10-26T00:13:41.962Z,35.85
2022-10-26T00:16:27.460Z,38.08
2022-10-26T00:18:54.586Z,40.33
2022-10-26T00:21:21.504Z,38.88
2022-10-26T00:23:48.410Z,35.20
2022-10-26T00:26:15.412Z,35.42
2022-10-26T00:28:42.310Z,35.05
2022-10-26T00:31:16.596Z,34.90
2022-10-26T00:33:43.893Z,33.55
2022-10-26T00:36:13.924Z,38.80
2022-10-26T00:38:45.928Z,36.97
2022-10-26T00:41:16.402Z,47.00
2022-10-26T00:43:43.440Z,41.20
2022-10-26T00:46:18.377Z,45.78
2022-10-26T00:48:51.168Z,57.55
2022-10-26T00:51:27.335Z,54.55
2022-10-26T00:53:56.010Z,60.70
2022-10-26T00:56:24.038Z,60.00
2022-10-26T00:58:52.064Z,66.88
2022-10-26T01:01:19.013Z,62.67
2022-10-26T01:03:47.215Z,59.10
2022-10-26T01:06:15.756Z,64.75
2022-10-26T01:08:44.134Z,62.83
2022-10-26T01:11:12.386Z,55.65
2022-10-26T01:13:41.944Z,58.47
2022-10-26T01:16:30.323Z,52.63
2022-10-26T01:19:30.985Z,55.53
2022-10-26T01:22:14.919Z,53.08
2022-10-26T01:25:12.864Z,58.22
2022-10-26T01:27:48.203Z,52.90
2022-10-26T01:30:40.105Z,55.40
2022-10-26T01:33:37.801Z,49.38
2022-10-26T01:36:26.531Z,55.42
2022-10-26T01:39:21.817Z,57.88
2022-10-26T01:41:55.045Z,58.97
2022-10-26T01:44:44.720Z,51.40
2022-10-26T01:47:16.308Z,58.47
2022-10-26T01:49:53.645Z,51.80
2022-10-26T01:52:21.552Z,57.83
2022-10-26T01:54:48.589Z,55.03
2022-10-26T01:57:20.144Z,50.20
2022-10-26T02:00:10.970Z,53.78
2022-10-26T02:03:01.388Z,52.55
2022-10-26T02:05:59.921Z,48.45
2022-10-26T02:08:44.253Z,55.47
2022-10-26T02:11:40.889Z,50.95
2022-10-26T02:14:54.337Z,52.63
2022-10-26T02:17:36.397Z,55.30
2022-10-26T02:20:08.993Z,55.10
2022-10-26T02:22:41.498Z,54.25
2022-10-26T02:25:16.063Z,53.42
2022-10-26T02:27:52.546Z,61.20
2022-10-26T02:30:20.113Z,60.58
2022-10-26T02:32:53.337Z,51.35
2022-10-26T02:35:27.943Z,52.15
2022-10-26T02:37:59.696Z,54.63
2022-10-26T02:40:29.771Z,53.72
2022-10-26T02:43:04.472Z,53.67
2022-10-26T02:45:41.135Z,51.75
2022-10-26T02:48:08.160Z,57.75
2022-10-26T02:51:11.525Z,49.08
2022-10-26T02:54:01.808Z,45.42
2022-10-26T02:56:39.260Z,42.97
2022-10-26T02:59:11.237Z,45.45
2022-10-26T03:01:39.172Z,48.65
2022-10-26T03:04:06.300Z,44.72
2022-10-26T03:06:33.278Z,44.15
2022-10-26T03:09:00.218Z,44.38
2022-10-26T03:11:27.152Z,44.13
2022-10-26T03:13:54.148Z,47.53
2022-10-26T03:16:21.328Z,48.25
2022-10-26T03:18:48.218Z,44.33
2022-10-26T03:21:15.112Z,41.58
2022-10-26T03:23:42.056Z,41.90
2022-10-26T03:26:08.984Z,41.80
2022-10-26T03:28:36.895Z,43.38
2022-10-26T03:31:03.784Z,48.47
2022-10-26T03:33:30.721Z,42.47
2022-10-26T03:35:57.752Z,44.03
2022-10-26T03:38:25.087Z,43.22
2022-10-26T03:40:52.542Z,38.53
2022-10-26T03:43:19.449Z,41.38
2022-10-26T03:45:46.553Z,44.60
2022-10-26T03:48:14.455Z,41.45
2022-10-26T03:50:41.616Z,41.58
2022-10-26T03:53:08.685Z,41.85
2022-10-26T03:55:35.889Z,37.42
2022-10-26T03:58:02.808Z,36.47
2022-10-26T04:00:29.808Z,40.30
2022-10-26T04:03:00.422Z,40.63
2022-10-26T04:05:29.381Z,37.10
2022-10-26T04:07:59.656Z,45.55
2022-10-26T04:10:28.081Z,38.00
2022-10-26T04:12:56.015Z,34.15
2022-10-26T04:15:23.641Z,37.92
2022-10-26T04:18:00.568Z,39.15
2022-10-26T04:20:30.363Z,36.80
2022-10-26T04:23:02.213Z,36.30
2022-10-26T04:25:32.965Z,34.60
2022-10-26T04:28:03.151Z,37.33
2022-10-26T04:30:30.545Z,36.58
2022-10-26T04:32:57.444Z,32.13
2022-10-26T04:35:24.605Z,36.17
2022-10-26T04:37:51.672Z,37.63
2022-10-26T04:40:18.822Z,37.53
2022-10-26T04:42:47.986Z,48.42
2022-10-26T04:45:16.460Z,45.90
2022-10-26T04:47:44.238Z,40.35
2022-10-26T04:50:13.799Z,31.25
2022-10-26T04:52:41.236Z,33.35
2022-10-26T04:55:08.693Z,33.78
2022-10-26T04:57:36.020Z,33.65
2022-10-26T05:00:05.261Z,33.00
2022-10-26T05:02:32.289Z,36.50
2022-10-26T05:04:59.405Z,34.83
2022-10-26T05:07:26.349Z,34.65
2022-10-26T05:09:53.245Z,36.97
2022-10-26T05:12:20.343Z,39.53
2022-10-26T05:14:47.260Z,31.92
2022-10-26T05:17:14.235Z,33.90
2022-10-26T05:19:41.279Z,37.25
2022-10-26T05:22:08.442Z,35.83
2022-10-26T05:24:35.396Z,39.20
2022-10-26T05:27:02.312Z,36.17
2022-10-26T05:29:29.229Z,33.60
2022-10-26T05:31:56.228Z,33.50
2022-10-26T05:34:23.191Z,38.00
2022-10-26T05:36:53.205Z,34.30
2022-10-26T05:39:21.332Z,34.58
2022-10-26T05:41:48.248Z,31.88
2022-10-26T05:44:15.163Z,36.08
2022-10-26T05:46:43.219Z,29.45
2022-10-26T05:49:10.233Z,30.88
2022-10-26T05:51:37.192Z,27.58
2022-10-26T05:54:04.460Z,28.80
2022-10-26T05:56:40.239Z,32.55
2022-10-26T05:59:16.109Z,29.20
2022-10-26T06:02:13.813Z,27.60
2022-10-26T06:04:48.726Z,21.17
2022-10-26T06:07:21.593Z,21.90
2022-10-26T06:09:49.665Z,19.60
2022-10-26T06:12:19.563Z,20.27
2022-10-26T06:14:47.480Z,19.73
2022-10-26T06:17:44.469Z,18.02
2022-10-26T06:20:50.617Z,17.73
2022-10-26T06:23:41.270Z,25.05
2022-10-26T06:26:32.713Z,23.35
2022-10-26T06:29:22.945Z,19.60
2022-10-26T06:31:50.097Z,21.33
2022-10-26T06:34:27.379Z,23.25
2022-10-26T06:36:58.226Z,21.58
2022-10-26T06:39:29.644Z,23.27
2022-10-26T06:41:58.484Z,23.83
2022-10-26T06:44:26.028Z,26.80
2022-10-26T06:47:19.831Z,23.55
2022-10-26T06:50:20.360Z,26.27
2022-10-26T06:53:03.611Z,28.58
2022-10-26T06:55:42.196Z,28.23
2022-10-26T06:58:20.072Z,25.70
2022-10-26T07:00:51.032Z,22.33
2022-10-26T07:03:18.108Z,23.15
2022-10-26T07:05:46.186Z,28.48
2022-10-26T07:08:13.454Z,21.85
2022-10-26T07:10:42.170Z,22.83
2022-10-26T07:13:10.964Z,25.63
2022-10-26T07:15:39.748Z,22.25
2022-10-26T07:18:08.570Z,23.95
2022-10-26T07:20:41.206Z,29.75
2022-10-26T07:23:12.654Z,23.02
2022-10-26T07:25:40.516Z,24.38
2022-10-26T07:28:10.541Z,27.48
2022-10-26T07:30:39.963Z,24.80
2022-10-26T07:33:13.464Z,31.02
2022-10-26T07:35:41.624Z,27.50
2022-10-26T07:38:13.508Z,20.38
2022-10-26T07:40:40.418Z,21.88
2022-10-26T07:43:07.365Z,24.58
2022-10-26T07:45:34.316Z,23.73
2022-10-26T07:48:01.260Z,27.08
2022-10-26T07:50:28.697Z,20.92
2022-10-26T07:52:55.720Z,18.90
2022-10-26T07:55:22.628Z,21.63
2022-10-26T07:57:52.614Z,18.17
2022-10-26T08:00:22.403Z,21.63
2022-10-26T08:02:49.583Z,21.90
2022-10-26T08:05:16.826Z,17.50
2022-10-26T08:07:47.788Z,17.27
2022-10-26T08:10:16.018Z,18.80
2022-10-26T08:12:44.259Z,22.42
2022-10-26T08:15:11.747Z,17.17
2022-10-26T08:17:38.772Z,17.40
2022-10-26T08:20:06.490Z,15.60
2022-10-26T08:22:33.412Z,15.32
2022-10-26T08:25:00.315Z,16.23
2022-10-26T08:27:27.327Z,18.58
2022-10-26T08:29:54.260Z,15.23
2022-10-26T08:32:21.207Z,13.75
2022-10-26T08:34:48.169Z,12.35
2022-10-26T08:37:15.118Z,14.85
2022-10-26T08:39:42.027Z,13.55
2022-10-26T08:42:26.197Z,13.23
2022-10-26T08:45:01.312Z,10.43
2022-10-26T08:47:43.807Z,13.15
2022-10-26T08:50:40.547Z,15.43
2022-10-26T08:53:51.730Z,14.20
2022-10-26T08:56:25.360Z,12.88
2022-10-26T08:58:58.938Z,11.27
2022-10-26T09:01:26.021Z,12.55
2022-10-26T09:03:53.265Z,15.50
2022-10-26T09:06:42.004Z,16.55
2022-10-26T09:09:17.580Z,18.17
2022-10-26T09:12:07.913Z,16.98
2022-10-26T09:14:51.769Z,17.30
2022-10-26T09:17:39.749Z,20.95
2022-10-26T09:20:35.767Z,19.67
2022-10-26T09:23:37.336Z,18.50
2022-10-26T09:26:13.981Z,16.13
2022-10-26T09:28:44.785Z,21.48
2022-10-26T09:31:17.786Z,15.00
2022-10-26T09:33:44.944Z,16.83
2022-10-26T09:36:20.827Z,17.08
2022-10-26T09:39:04.202Z,17.00
2022-10-26T09:44:34.698Z,17.60
2022-10-26T09:47:19.754Z,19.08
2022-10-26T09:49:58.887Z,16.83
2022-10-26T09:52:25.843Z,20.20
2022-10-26T09:54:52.776Z,17.88
2022-10-26T09:57:21.209Z,16.27
2022-10-26T09:59:50.621Z,17.38
2022-10-26T10:02:40.443Z,17.67
2022-10-26T10:05:51.342Z,19.75
2022-10-26T10:08:24.350Z,18.70
2022-10-26T10:11:00.052Z,22.05
2022-10-26T10:13:31.636Z,16.48
2022-10-26T10:16:20.050Z,19.23
2022-10-26T10:18:59.352Z,15.68
2022-10-26T10:21:45.452Z,17.60
2022-10-26T10:24:29.642Z,16.70
2022-10-26T10:27:05.518Z,19.85
2022-10-26T10:29:40.481Z,16.00
2022-10-26T10:32:35.829Z,16.50
2022-10-26T10:35:29.865Z,15.65
2022-10-26T10:37:57.940Z,22.10
2022-10-26T10:40:31.481Z,17.92
2022-10-26T10:43:13.335Z,17.50
2022-10-26T10:45:46.220Z,19.48
2022-10-26T10:48:13.048Z,18.23
2022-10-26T10:50:51.708Z,17.55
2022-10-26T10:53:31.849Z,17.45
2022-10-26T10:56:48.914Z,15.15
2022-10-26T11:00:01.372Z,20.45
2022-10-26T11:03:16.808Z,17.20
2022-10-26T11:06:11.242Z,17.70
2022-10-26T11:08:57.256Z,21.63
2022-10-26T11:11:45.483Z,15.85
2022-10-26T11:14:30.692Z,14.52
2022-10-26T11:17:19.734Z,18.23
2022-10-26T11:20:14.903Z,16.23
2022-10-26T11:23:11.140Z,16.27
2022-10-26T11:26:15.105Z,22.67
2022-10-26T11:28:58.229Z,16.35
2022-10-26T11:31:39.944Z,19.27
2022-10-26T11:34:50.999Z,16.60
2022-10-26T11:37:32.696Z,14.35
2022-10-26T11:40:27.466Z,20.98
2022-10-26T11:43:23.093Z,18.20
2022-10-26T11:46:33.134Z,15.30
2022-10-26T11:49:27.006Z,13.40
2022-10-26T11:52:08.910Z,19.48
2022-10-26T11:54:52.440Z,17.88
2022-10-26T11:57:22.073Z,17.50
2022-10-26T12:00:02.186Z,16.13
2022-10-26T12:02:29.306Z,14.85
2022-10-26T12:05:16.628Z,15.05
2022-10-26T12:08:08.592Z,17.80
2022-10-26T12:10:41.914Z,14.38
2022-10-26T12:13:22.458Z,17.02
2022-10-26T12:16:03.910Z,14.77
2022-10-26T12:19:04.246Z,19.30
2022-10-26T12:21:33.303Z,12.85
2022-10-26T12:24:22.601Z,17.55
2022-10-26T12:27:01.880Z,14.40
2022-10-26T12:29:30.429Z,15.10
2022-10-26T12:31:58.202Z,16.65
2022-10-26T12:34:31.118Z,15.90
2022-10-26T12:37:24.058Z,18.17
2022-10-26T12:39:51.512Z,15.87
2022-10-26T12:42:18.348Z,18.02
2022-10-26T12:44:48.327Z,18.13
2022-10-26T12:47:30.764Z,20.48
2022-10-26T12:50:06.685Z,18.50
2022-10-26T12:52:48.858Z,17.77
2022-10-26T12:55:40.476Z,18.08
2022-10-26T12:58:27.604Z,20.23
2022-10-26T13:01:00.244Z,19.58
2022-10-26T13:04:04.015Z,21.52
2022-10-26T13:07:19.449Z,19.20
2022-10-26T13:10:17.530Z,21.13
2022-10-26T13:13:02.848Z,20.10
2022-10-26T13:15:38.924Z,22.23
2022-10-26T13:18:18.873Z,19.13
2022-10-26T13:21:14.001Z,21.05
2022-10-26T13:23:48.299Z,17.52
2022-10-26T13:26:19.164Z,18.23
2022-10-26T13:29:04.486Z,23.35
2022-10-26T13:31:31.511Z,23.52
2022-10-26T13:34:04.184Z,18.38
2022-10-26T13:36:47.294Z,20.55
2022-10-26T13:39:21.853Z,17.50
2022-10-26T13:41:52.662Z,20.67
2022-10-26T13:44:44.545Z,21.10
2022-10-26T13:47:27.116Z,19.13
2022-10-26T13:50:03.229Z,20.37
2022-10-26T13:52:42.503Z,17.58
2022-10-26T13:55:39.777Z,24.75
2022-10-26T13:58:36.364Z,33.20
2022-10-26T14:01:16.970Z,28.55
2022-10-26T14:03:45.016Z,22.90
2022-10-26T14:06:40.265Z,22.52
2022-10-26T14:09:18.810Z,26.23
2022-10-26T14:11:58.799Z,29.88
2022-10-26T14:14:38.643Z,29.70
2022-10-26T14:17:06.186Z,23.38
2022-10-26T14:19:40.110Z,24.90
2022-10-26T14:22:11.587Z,20.27
2022-10-26T14:24:48.247Z,26.30
2022-10-26T14:27:25.438Z,27.92
2022-10-26T14:30:17.145Z,21.40
2022-10-26T14:32:41.884Z,22.17
2022-10-26T14:35:16.478Z,18.00
2022-10-26T14:38:01.192Z,22.08
2022-10-26T14:40:35.208Z,20.33
2022-10-26T14:43:05.478Z,21.25
2022-10-26T14:45:54.430Z,22.98
2022-10-26T14:48:33.168Z,18.67
2022-10-26T14:51:17.882Z,24.42
2022-10-26T14:53:54.730Z,21.92
2022-10-26T14:56:50.308Z,23.13
2022-10-26T14:59:28.119Z,26.35
2022-10-26T15:02:22.121Z,27.25
2022-10-26T15:05:17.535Z,26.05
2022-10-26T15:07:48.654Z,23.25
2022-10-26T15:10:38.065Z,28.90
2022-10-26T15:13:33.677Z,33.45
2022-10-26T15:16:23.434Z,36.08
2022-10-26T15:19:23.773Z,38.10
2022-10-26T15:21:54.477Z,47.75
2022-10-26T15:24:37.711Z,79.25
2022-10-26T15:27:17.182Z,79.63
2022-10-26T15:29:50.791Z,85.82
2022-10-26T15:32:33.393Z,75.93
2022-10-26T15:35:23.588Z,47.95
2022-10-26T15:37:53.343Z,38.08
2022-10-26T15:40:20.538Z,38.38
2022-10-26T15:42:53.494Z,26.13
2022-10-26T15:45:28.800Z,20.88
2022-10-26T15:47:58.881Z,24.40
2022-10-26T15:50:28.820Z,26.10
2022-10-26T15:53:17.610Z,51.88
2022-10-26T15:55:44.747Z,50.55
2022-10-26T15:58:12.176Z,35.47
2022-10-26T16:00:39.133Z,27.52
2022-10-26T16:03:06.090Z,31.58
2022-10-26T16:05:33.373Z,29.83
2022-10-26T16:08:00.452Z,28.13
2022-10-26T16:10:27.570Z,23.42
2022-10-26T16:12:55.078Z,34.42
2022-10-26T16:27:45.765Z,24.00
2022-10-26T16:30:14.331Z,29.25
2022-10-26T16:32:42.286Z,32.72
2022-10-26T16:35:11.610Z,26.67
2022-10-26T16:37:39.471Z,30.05
2022-10-26T16:40:08.708Z,26.75
2022-10-26T16:42:35.846Z,28.05
2022-10-26T16:45:03.405Z,31.52
2022-10-26T16:47:37.682Z,32.55
2022-10-26T16:50:05.428Z,29.02
2022-10-26T16:52:35.704Z,27.92
2022-10-26T16:55:04.196Z,25.38
2022-10-26T16:57:31.457Z,24.92
2022-10-26T16:59:58.512Z,28.17
2022-10-26T17:02:25.678Z,31.30
2022-10-26T17:04:52.662Z,24.85
2022-10-26T17:07:22.524Z,30.50
2022-10-26T17:09:49.647Z,29.35
2022-10-26T17:12:16.972Z,35.42
2022-10-26T17:14:44.076Z,34.40
2022-10-26T17:17:11.112Z,34.80
2022-10-26T17:19:38.213Z,31.10
2022-10-26T17:22:07.925Z,31.20
2022-10-26T17:24:36.275Z,25.55
2022-10-26T17:27:06.012Z,30.17
2022-10-26T17:29:32.962Z,32.03
2022-10-26T17:31:59.982Z,33.20
2022-10-26T17:34:26.981Z,34.15
2022-10-26T17:36:53.906Z,34.22
2022-10-26T17:39:21.149Z,39.58
2022-10-26T17:41:48.108Z,46.13
2022-10-26T17:44:15.558Z,41.80
2022-10-26T17:46:42.534Z,37.03
2022-10-26T17:49:09.532Z,34.55
2022-10-26T17:51:36.533Z,33.30
2022-10-26T17:54:03.714Z,34.15
2022-10-26T17:56:33.538Z,36.42
2022-10-26T17:59:04.565Z,31.73
2022-10-26T18:01:32.544Z,40.13
2022-10-26T18:04:00.402Z,41.03
2022-10-26T18:06:27.828Z,41.03
2022-10-26T18:08:57.890Z,40.40
2022-10-26T18:11:27.144Z,33.20
2022-10-26T18:13:56.087Z,33.65
2022-10-26T18:16:26.396Z,32.05
2022-10-26T18:19:00.650Z,33.00
2022-10-26T18:21:33.890Z,40.15
2022-10-26T18:24:00.966Z,37.53
2022-10-26T18:26:30.691Z,40.35
2022-10-26T18:28:59.674Z,39.00
2022-10-26T18:31:28.898Z,40.97
2022-10-26T18:33:58.672Z,38.17
2022-10-26T18:36:27.493Z,39.10
2022-10-26T18:38:54.805Z,40.00
2022-10-26T18:41:24.400Z,37.63
2022-10-26T18:43:55.111Z,38.17
2022-10-26T18:46:27.531Z,40.15
2022-10-26T18:48:56.217Z,37.83
2022-10-26T18:51:28.904Z,37.20
2022-10-26T18:53:57.833Z,38.72
2022-10-26T18:56:25.639Z,43.83
2022-10-26T18:58:58.453Z,34.30
2022-10-26T19:01:32.207Z,35.30
2022-10-26T19:04:04.727Z,41.75
2022-10-26T19:06:43.135Z,38.63
2022-10-26T19:09:10.292Z,37.80
2022-10-26T19:11:38.099Z,38.10
2022-10-26T19:14:05.432Z,40.40
2022-10-26T19:16:45.530Z,36.97
2022-10-26T19:19:16.514Z,39.55
2022-10-26T19:21:47.330Z,42.92
2022-10-26T19:24:29.226Z,41.65
2022-10-26T19:26:59.190Z,38.67
2022-10-26T19:29:27.568Z,33.20
2022-10-26T19:31:54.857Z,33.05
2022-10-26T19:34:22.348Z,34.38
2022-10-26T19:36:49.388Z,37.92
2022-10-26T19:39:19.077Z,34.55
2022-10-26T19:41:46.882Z,38.80
2022-10-26T19:44:15.219Z,38.17
2022-10-26T19:46:43.794Z,36.88
2022-10-26T19:49:12.959Z,35.75
2022-10-26T19:51:40.293Z,36.47
2022-10-26T19:54:07.715Z,39.88
2022-10-26T19:56:37.127Z,41.95
2022-10-26T19:59:05.354Z,44.88
2022-10-26T20:01:32.705Z,42.70
2022-10-26T20:04:02.427Z,40.60
2022-10-26T20:06:30.651Z,40.88
2022-10-26T20:08:57.958Z,42.70
2022-10-26T20:11:24.912Z,36.95
2022-10-26T20:13:51.838Z,42.42
2022-10-26T20:16:18.838Z,37.60
2022-10-26T20:18:48.133Z,36.95
2022-10-26T20:21:17.535Z,45.50
2022-10-26T20:23:45.457Z,43.42
2022-10-26T20:26:19.733Z,39.42
2022-10-26T20:28:53.500Z,39.78
2022-10-26T20:31:20.569Z,44.05
2022-10-26T20:33:55.286Z,42.17
2022-10-26T20:36:22.777Z,50.60
2022-10-26T20:38:50.153Z,44.83
2022-10-26T20:41:17.760Z,40.63
2022-10-26T20:43:44.998Z,41.05
2022-10-26T20:46:27.744Z,43.13
2022-10-26T20:48:55.504Z,36.10
2022-10-26T20:52:26.773Z,43.25
2022-10-26T20:55:12.278Z,39.92
2022-10-26T20:57:44.997Z,40.53
2022-10-26T21:00:12.642Z,42.97
2022-10-26T21:02:39.654Z,41.17
2022-10-26T21:05:07.054Z,43.70
2022-10-26T21:07:33.990Z,38.65
2022-10-26T21:10:00.918Z,43.83
2022-10-26T21:12:27.974Z,46.08
2022-10-26T21:14:54.941Z,47.38
2022-10-26T21:17:21.898Z,42.22
2022-10-26T21:19:48.907Z,47.38
2022-10-26T21:22:15.887Z,45.17
2022-10-26T21:24:42.893Z,41.20
2022-10-26T21:27:09.852Z,40.60
2022-10-26T21:29:36.836Z,45.67
2022-10-26T21:32:04.193Z,45.65
2022-10-26T21:34:31.087Z,41.65
2022-10-26T21:36:58.044Z,45.70
2022-10-26T21:39:24.987Z,45.13
2022-10-26T21:41:51.890Z,44.22
2022-10-26T21:44:40.501Z,40.28
2022-10-26T21:47:05.848Z,46.95
2022-10-26T21:49:32.802Z,47.58
2022-10-26T21:51:59.722Z,47.13
2022-10-26T21:54:26.614Z,49.25
2022-10-26T21:56:53.542Z,49.95
2022-10-26T21:59:20.566Z,43.90
2022-10-26T22:05:57.204Z,40.65
2022-10-26T22:08:24.108Z,48.78
2022-10-26T22:10:51.076Z,45.25
2022-10-26T22:13:17.933Z,46.55
2022-10-26T22:15:44.922Z,46.85
2022-10-26T22:18:11.766Z,47.53
2022-10-26T22:20:38.633Z,53.38
2022-10-26T22:25:37.449Z,46.65
2022-10-26T22:28:04.491Z,44.83
2022-10-26T22:30:31.306Z,48.28
2022-10-26T22:32:58.146Z,45.97
2022-10-26T22:35:29.308Z,52.33
2022-10-26T22:37:57.436Z,50.90
2022-10-26T22:40:24.320Z,53.08
2022-10-26T22:42:52.332Z,63.85
2022-10-26T22:45:19.422Z,61.45
2022-10-26T22:47:46.284Z,85.72
2022-10-26T22:50:13.143Z,99.30
2022-10-26T22:52:40.176Z,110.38
2022-10-26T22:55:07.864Z,106.28
2022-10-26T22:57:34.676Z,228.68
2022-10-26T23:00:01.593Z,236.35
2022-10-26T23:02:28.444Z,154.13
2022-10-26T23:04:55.353Z,208.30
2022-10-26T23:07:25.988Z,219.13
2022-10-26T23:09:52.870Z,178.88
2022-10-26T23:12:19.728Z,307.98
2022-10-26T23:14:46.549Z,453.90
2022-10-26T23:17:13.703Z,321.98
2022-10-26T23:19:40.515Z,242.98
2022-10-26T23:22:07.414Z,412.42
2022-10-26T23:24:34.356Z,167.27
2022-10-26T23:27:01.539Z,299.52
2022-10-26T23:29:28.450Z,245.13
2022-10-26T23:31:55.462Z,314.02
2022-10-26T23:34:22.395Z,333.85
2022-10-26T23:36:50.551Z,304.55
2022-10-26T23:39:17.644Z,171.77
2022-10-26T23:41:44.588Z,236.75
2022-10-26T23:44:11.492Z,342.38
2022-10-26T23:46:38.409Z,206.52
2022-10-26T23:49:05.717Z,209.02
2022-10-26T23:51:32.672Z,228.20
2022-10-26T23:53:59.565Z,130.77
2022-10-26T23:56:26.502Z,189.77
2022-10-26T23:58:53.624Z,153.43
